sensor_id;sensor_type;location;lat;lon;timestamp;P1;durP1;ratioP1;P2;durP2;ratioP2
76344;SDS011;65160;50.504;3.666;2023-02-04T00:00:52;22.73;;;9.65;;
76344;SDS011;65160;50.504;3.666;2023-02-04T00:03:18;20.77;;;9.25;;
76344;SDS011;65160;50.504;3.666;2023-02-04T00:05:43;18.15;;;9.00;;
76344;SDS011;65160;50.504;3.666;2023-02-04T00:08:09;16.52;;;8.77;;
76344;SDS011;65160;50.504;3.666;2023-02-04T00:10:35;16.73;;;8.57;;
76344;SDS011;65160;50.504;3.666;2023-02-04T00:13:02;18.05;;;8.77;;
76344;SDS011;65160;50.504;3.666;2023-02-04T00:15:28;23.00;;;9.20;;
76344;SDS011;65160;50.504;3.666;2023-02-04T00:17:54;20.08;;;9.93;;
76344;SDS011;65160;50.504;3.666;2023-02-04T00:20:19;20.77;;;9.45;;
76344;SDS011;65160;50.504;3.666;2023-02-04T00:22:45;21.20;;;9.85;;
76344;SDS011;65160;50.504;3.666;2023-02-04T00:25:10;25.25;;;11.73;;
76344;SDS011;65160;50.504;3.666;2023-02-04T00:27:36;18.98;;;9.27;;
76344;SDS011;65160;50.504;3.666;2023-02-04T00:30:03;19.42;;;11.55;;
76344;SDS011;65160;50.504;3.666;2023-02-04T00:32:29;20.33;;;10.10;;
76344;SDS011;65160;50.504;3.666;2023-02-04T00:34:54;20.25;;;10.63;;
76344;SDS011;65160;50.504;3.666;2023-02-04T00:37:20;17.50;;;9.13;;
76344;SDS011;65160;50.504;3.666;2023-02-04T00:39:45;22.73;;;10.15;;
76344;SDS011;65160;50.504;3.666;2023-02-04T00:42:11;24.77;;;10.57;;
76344;SDS011;65160;50.504;3.666;2023-02-04T00:44:36;19.45;;;10.20;;
76344;SDS011;65160;50.504;3.666;2023-02-04T00:47:02;16.92;;;9.73;;
76344;SDS011;65160;50.504;3.666;2023-02-04T00:49:28;19.50;;;10.07;;
76344;SDS011;65160;50.504;3.666;2023-02-04T00:51:54;19.40;;;9.63;;
76344;SDS011;65160;50.504;3.666;2023-02-04T00:54:19;18.63;;;9.65;;
76344;SDS011;65160;50.504;3.666;2023-02-04T00:56:45;19.00;;;9.45;;
76344;SDS011;65160;50.504;3.666;2023-02-04T00:59:10;20.52;;;9.77;;
76344;SDS011;65160;50.504;3.666;2023-02-04T01:01:36;19.92;;;8.80;;
76344;SDS011;65160;50.504;3.666;2023-02-04T01:04:02;19.00;;;9.02;;
76344;SDS011;65160;50.504;3.666;2023-02-04T01:06:27;17.67;;;8.95;;
76344;SDS011;65160;50.504;3.666;2023-02-04T01:08:53;15.05;;;8.60;;
76344;SDS011;65160;50.504;3.666;2023-02-04T01:11:18;21.02;;;9.20;;
76344;SDS011;65160;50.504;3.666;2023-02-04T01:13:44;18.65;;;9.30;;
76344;SDS011;65160;50.504;3.666;2023-02-04T01:16:10;21.88;;;10.23;;
76344;SDS011;65160;50.504;3.666;2023-02-04T01:18:36;15.45;;;9.00;;
76344;SDS011;65160;50.504;3.666;2023-02-04T01:21:01;17.05;;;10.00;;
76344;SDS011;65160;50.504;3.666;2023-02-04T01:23:27;22.20;;;10.40;;
76344;SDS011;65160;50.504;3.666;2023-02-04T01:25:53;18.98;;;9.57;;
76344;SDS011;65160;50.504;3.666;2023-02-04T01:28:18;15.15;;;10.43;;
76344;SDS011;65160;50.504;3.666;2023-02-04T01:30:44;21.95;;;10.10;;
76344;SDS011;65160;50.504;3.666;2023-02-04T01:33:09;15.88;;;8.90;;
76344;SDS011;65160;50.504;3.666;2023-02-04T01:35:35;20.42;;;10.60;;
76344;SDS011;65160;50.504;3.666;2023-02-04T01:38:00;18.35;;;9.93;;
76344;SDS011;65160;50.504;3.666;2023-02-04T01:40:26;19.10;;;10.73;;
76344;SDS011;65160;50.504;3.666;2023-02-04T01:42:51;20.40;;;10.23;;
76344;SDS011;65160;50.504;3.666;2023-02-04T01:45:17;16.40;;;9.85;;
76344;SDS011;65160;50.504;3.666;2023-02-04T01:47:43;17.70;;;10.52;;
76344;SDS011;65160;50.504;3.666;2023-02-04T01:50:10;20.67;;;10.07;;
76344;SDS011;65160;50.504;3.666;2023-02-04T01:52:38;20.40;;;10.73;;
76344;SDS011;65160;50.504;3.666;2023-02-04T01:55:15;18.48;;;10.85;;
76344;SDS011;65160;50.504;3.666;2023-02-04T01:57:46;19.30;;;11.85;;
76344;SDS011;65160;50.504;3.666;2023-02-04T02:05:10;23.92;;;12.63;;
76344;SDS011;65160;50.504;3.666;2023-02-04T02:07:42;19.20;;;12.18;;
76344;SDS011;65160;50.504;3.666;2023-02-04T02:10:08;21.80;;;10.68;;
76344;SDS011;65160;50.504;3.666;2023-02-04T02:12:36;18.35;;;11.23;;
76344;SDS011;65160;50.504;3.666;2023-02-04T02:15:02;17.73;;;10.35;;
76344;SDS011;65160;50.504;3.666;2023-02-04T02:17:28;18.75;;;11.13;;
76344;SDS011;65160;50.504;3.666;2023-02-04T02:19:54;21.10;;;10.73;;
76344;SDS011;65160;50.504;3.666;2023-02-04T02:24:56;16.92;;;10.70;;
76344;SDS011;65160;50.504;3.666;2023-02-04T02:27:22;18.15;;;11.85;;
76344;SDS011;65160;50.504;3.666;2023-02-04T02:29:47;17.25;;;11.40;;
76344;SDS011;65160;50.504;3.666;2023-02-04T02:32:14;20.38;;;11.23;;
76344;SDS011;65160;50.504;3.666;2023-02-04T02:34:40;16.75;;;10.88;;
76344;SDS011;65160;50.504;3.666;2023-02-04T02:37:07;23.52;;;11.40;;
76344;SDS011;65160;50.504;3.666;2023-02-04T02:39:36;15.73;;;10.35;;
76344;SDS011;65160;50.504;3.666;2023-02-04T02:42:03;20.15;;;11.77;;
76344;SDS011;65160;50.504;3.666;2023-02-04T02:44:29;29.63;;;11.98;;
76344;SDS011;65160;50.504;3.666;2023-02-04T02:46:56;18.50;;;12.13;;
76344;SDS011;65160;50.504;3.666;2023-02-04T02:49:22;22.63;;;11.25;;
76344;SDS011;65160;50.504;3.666;2023-02-04T02:51:47;22.05;;;11.30;;
76344;SDS011;65160;50.504;3.666;2023-02-04T02:54:31;22.63;;;11.52;;
76344;SDS011;65160;50.504;3.666;2023-02-04T02:56:58;23.05;;;13.88;;
76344;SDS011;65160;50.504;3.666;2023-02-04T02:59:24;26.35;;;14.35;;
76344;SDS011;65160;50.504;3.666;2023-02-04T03:01:52;27.75;;;15.13;;
76344;SDS011;65160;50.504;3.666;2023-02-04T03:04:25;24.17;;;14.93;;
76344;SDS011;65160;50.504;3.666;2023-02-04T03:06:55;24.77;;;15.57;;
76344;SDS011;65160;50.504;3.666;2023-02-04T03:09:21;26.80;;;15.77;;
76344;SDS011;65160;50.504;3.666;2023-02-04T03:11:49;28.10;;;17.02;;
76344;SDS011;65160;50.504;3.666;2023-02-04T03:14:14;29.75;;;17.08;;
76344;SDS011;65160;50.504;3.666;2023-02-04T03:16:40;32.13;;;18.30;;
76344;SDS011;65160;50.504;3.666;2023-02-04T03:19:08;31.00;;;17.40;;
76344;SDS011;65160;50.504;3.666;2023-02-04T03:21:34;30.27;;;17.95;;
76344;SDS011;65160;50.504;3.666;2023-02-04T03:24:00;30.98;;;18.75;;
76344;SDS011;65160;50.504;3.666;2023-02-04T03:26:25;24.48;;;16.88;;
76344;SDS011;65160;50.504;3.666;2023-02-04T03:28:54;26.80;;;16.70;;
76344;SDS011;65160;50.504;3.666;2023-02-04T03:31:20;30.92;;;18.35;;
76344;SDS011;65160;50.504;3.666;2023-02-04T03:33:45;30.75;;;17.92;;
76344;SDS011;65160;50.504;3.666;2023-02-04T03:36:11;28.73;;;18.73;;
76344;SDS011;65160;50.504;3.666;2023-02-04T03:38:36;30.38;;;19.13;;
76344;SDS011;65160;50.504;3.666;2023-02-04T03:41:02;29.88;;;19.25;;
76344;SDS011;65160;50.504;3.666;2023-02-04T03:43:28;29.23;;;18.60;;
76344;SDS011;65160;50.504;3.666;2023-02-04T03:45:53;31.95;;;18.90;;
76344;SDS011;65160;50.504;3.666;2023-02-04T03:48:19;28.23;;;18.25;;
76344;SDS011;65160;50.504;3.666;2023-02-04T03:50:44;27.25;;;19.05;;
76344;SDS011;65160;50.504;3.666;2023-02-04T03:53:10;31.00;;;18.70;;
76344;SDS011;65160;50.504;3.666;2023-02-04T03:55:35;32.15;;;18.90;;
76344;SDS011;65160;50.504;3.666;2023-02-04T03:58:02;29.25;;;18.10;;
76344;SDS011;65160;50.504;3.666;2023-02-04T04:00:28;32.58;;;19.63;;
76344;SDS011;65160;50.504;3.666;2023-02-04T04:02:53;28.77;;;19.80;;
76344;SDS011;65160;50.504;3.666;2023-02-04T04:05:19;28.77;;;18.88;;
76344;SDS011;65160;50.504;3.666;2023-02-04T04:07:44;33.13;;;19.95;;
76344;SDS011;65160;50.504;3.666;2023-02-04T04:10:10;28.40;;;18.70;;
76344;SDS011;65160;50.504;3.666;2023-02-04T04:12:35;28.88;;;17.92;;
76344;SDS011;65160;50.504;3.666;2023-02-04T04:15:01;30.83;;;17.27;;
76344;SDS011;65160;50.504;3.666;2023-02-04T04:17:27;25.52;;;17.52;;
76344;SDS011;65160;50.504;3.666;2023-02-04T04:19:52;27.08;;;16.67;;
76344;SDS011;65160;50.504;3.666;2023-02-04T04:22:18;25.83;;;15.48;;
76344;SDS011;65160;50.504;3.666;2023-02-04T04:24:43;29.13;;;16.88;;
76344;SDS011;65160;50.504;3.666;2023-02-04T04:27:09;31.60;;;17.42;;
76344;SDS011;65160;50.504;3.666;2023-02-04T04:29:35;27.05;;;16.98;;
76344;SDS011;65160;50.504;3.666;2023-02-04T04:32:00;25.20;;;16.17;;
76344;SDS011;65160;50.504;3.666;2023-02-04T04:34:26;27.23;;;15.10;;
76344;SDS011;65160;50.504;3.666;2023-02-04T04:36:51;23.75;;;15.40;;
76344;SDS011;65160;50.504;3.666;2023-02-04T04:39:16;25.23;;;15.35;;
76344;SDS011;65160;50.504;3.666;2023-02-04T04:41:42;26.23;;;16.08;;
76344;SDS011;65160;50.504;3.666;2023-02-04T04:44:07;25.92;;;15.65;;
76344;SDS011;65160;50.504;3.666;2023-02-04T04:46:33;25.20;;;15.18;;
76344;SDS011;65160;50.504;3.666;2023-02-04T04:48:58;26.27;;;16.05;;
76344;SDS011;65160;50.504;3.666;2023-02-04T04:51:24;28.33;;;15.57;;
76344;SDS011;65160;50.504;3.666;2023-02-04T04:53:49;24.67;;;15.38;;
76344;SDS011;65160;50.504;3.666;2023-02-04T04:56:15;29.30;;;15.80;;
76344;SDS011;65160;50.504;3.666;2023-02-04T04:58:40;22.88;;;15.68;;
76344;SDS011;65160;50.504;3.666;2023-02-04T05:01:06;23.60;;;15.32;;
76344;SDS011;65160;50.504;3.666;2023-02-04T05:03:31;24.38;;;15.25;;
76344;SDS011;65160;50.504;3.666;2023-02-04T05:05:57;25.83;;;14.63;;
76344;SDS011;65160;50.504;3.666;2023-02-04T05:08:23;22.20;;;13.80;;
76344;SDS011;65160;50.504;3.666;2023-02-04T05:10:48;24.88;;;14.45;;
76344;SDS011;65160;50.504;3.666;2023-02-04T05:13:14;22.05;;;14.23;;
76344;SDS011;65160;50.504;3.666;2023-02-04T05:15:40;21.48;;;14.15;;
76344;SDS011;65160;50.504;3.666;2023-02-04T05:18:06;21.83;;;13.65;;
76344;SDS011;65160;50.504;3.666;2023-02-04T05:20:31;25.17;;;13.57;;
76344;SDS011;65160;50.504;3.666;2023-02-04T05:22:57;25.10;;;15.20;;
76344;SDS011;65160;50.504;3.666;2023-02-04T05:25:25;24.85;;;14.68;;
76344;SDS011;65160;50.504;3.666;2023-02-04T05:27:51;25.13;;;13.80;;
76344;SDS011;65160;50.504;3.666;2023-02-04T05:30:16;23.10;;;14.10;;
76344;SDS011;65160;50.504;3.666;2023-02-04T05:32:42;29.63;;;13.75;;
76344;SDS011;65160;50.504;3.666;2023-02-04T05:35:07;27.05;;;15.10;;
76344;SDS011;65160;50.504;3.666;2023-02-04T05:37:33;28.38;;;15.65;;
76344;SDS011;65160;50.504;3.666;2023-02-04T05:39:58;29.25;;;15.20;;
76344;SDS011;65160;50.504;3.666;2023-02-04T05:42:24;27.33;;;15.05;;
76344;SDS011;65160;50.504;3.666;2023-02-04T05:44:49;24.67;;;15.40;;
76344;SDS011;65160;50.504;3.666;2023-02-04T05:47:15;28.73;;;14.60;;
76344;SDS011;65160;50.504;3.666;2023-02-04T05:49:40;30.90;;;15.82;;
76344;SDS011;65160;50.504;3.666;2023-02-04T05:52:06;25.52;;;13.90;;
76344;SDS011;65160;50.504;3.666;2023-02-04T05:54:31;23.45;;;14.75;;
76344;SDS011;65160;50.504;3.666;2023-02-04T05:56:57;23.58;;;14.02;;
76344;SDS011;65160;50.504;3.666;2023-02-04T05:59:23;31.15;;;14.75;;
76344;SDS011;65160;50.504;3.666;2023-02-04T06:01:48;35.60;;;15.13;;
76344;SDS011;65160;50.504;3.666;2023-02-04T06:04:14;27.42;;;14.95;;
76344;SDS011;65160;50.504;3.666;2023-02-04T06:06:40;29.30;;;15.73;;
76344;SDS011;65160;50.504;3.666;2023-02-04T06:09:06;31.30;;;15.57;;
76344;SDS011;65160;50.504;3.666;2023-02-04T06:11:32;25.45;;;14.68;;
76344;SDS011;65160;50.504;3.666;2023-02-04T06:13:57;29.83;;;15.98;;
76344;SDS011;65160;50.504;3.666;2023-02-04T06:16:23;29.80;;;14.98;;
76344;SDS011;65160;50.504;3.666;2023-02-04T06:18:49;29.92;;;14.25;;
76344;SDS011;65160;50.504;3.666;2023-02-04T06:21:14;33.13;;;15.55;;
76344;SDS011;65160;50.504;3.666;2023-02-04T06:23:40;28.63;;;13.18;;
76344;SDS011;65160;50.504;3.666;2023-02-04T06:26:05;29.20;;;15.18;;
76344;SDS011;65160;50.504;3.666;2023-02-04T06:28:30;27.42;;;13.75;;
76344;SDS011;65160;50.504;3.666;2023-02-04T06:30:56;29.23;;;14.00;;
76344;SDS011;65160;50.504;3.666;2023-02-04T06:33:22;28.05;;;14.68;;
76344;SDS011;65160;50.504;3.666;2023-02-04T06:35:48;25.48;;;14.35;;
76344;SDS011;65160;50.504;3.666;2023-02-04T06:38:14;25.52;;;14.00;;
76344;SDS011;65160;50.504;3.666;2023-02-04T06:40:40;24.08;;;14.02;;
76344;SDS011;65160;50.504;3.666;2023-02-04T06:43:05;29.40;;;14.23;;
76344;SDS011;65160;50.504;3.666;2023-02-04T06:45:31;25.60;;;14.43;;
76344;SDS011;65160;50.504;3.666;2023-02-04T06:47:56;30.35;;;14.60;;
76344;SDS011;65160;50.504;3.666;2023-02-04T06:50:22;22.85;;;13.98;;
76344;SDS011;65160;50.504;3.666;2023-02-04T06:52:47;25.73;;;13.57;;
76344;SDS011;65160;50.504;3.666;2023-02-04T06:55:13;25.50;;;13.40;;
76344;SDS011;65160;50.504;3.666;2023-02-04T06:57:40;24.52;;;14.35;;
76344;SDS011;65160;50.504;3.666;2023-02-04T07:00:07;25.45;;;12.70;;
76344;SDS011;65160;50.504;3.666;2023-02-04T07:02:34;23.10;;;14.13;;
76344;SDS011;65160;50.504;3.666;2023-02-04T07:05:01;24.15;;;12.93;;
76344;SDS011;65160;50.504;3.666;2023-02-04T07:07:27;29.52;;;14.48;;
76344;SDS011;65160;50.504;3.666;2023-02-04T07:09:52;24.30;;;12.63;;
76344;SDS011;65160;50.504;3.666;2023-02-04T07:12:18;22.20;;;13.13;;
76344;SDS011;65160;50.504;3.666;2023-02-04T07:14:44;29.08;;;12.70;;
76344;SDS011;65160;50.504;3.666;2023-02-04T07:17:09;24.73;;;12.80;;
76344;SDS011;65160;50.504;3.666;2023-02-04T07:19:35;25.63;;;13.35;;
76344;SDS011;65160;50.504;3.666;2023-02-04T07:22:01;29.07;;;12.90;;
76344;SDS011;65160;50.504;3.666;2023-02-04T07:24:27;23.50;;;12.50;;
76344;SDS011;65160;50.504;3.666;2023-02-04T07:26:52;21.55;;;12.63;;
76344;SDS011;65160;50.504;3.666;2023-02-04T07:29:18;21.75;;;11.82;;
76344;SDS011;65160;50.504;3.666;2023-02-04T07:31:44;23.58;;;12.75;;
76344;SDS011;65160;50.504;3.666;2023-02-04T07:34:13;21.02;;;11.30;;
76344;SDS011;65160;50.504;3.666;2023-02-04T07:36:38;22.73;;;12.80;;
76344;SDS011;65160;50.504;3.666;2023-02-04T07:39:05;21.00;;;12.20;;
76344;SDS011;65160;50.504;3.666;2023-02-04T07:41:31;20.30;;;11.80;;
76344;SDS011;65160;50.504;3.666;2023-02-04T07:43:56;22.45;;;13.18;;
76344;SDS011;65160;50.504;3.666;2023-02-04T07:46:21;16.90;;;11.20;;
76344;SDS011;65160;50.504;3.666;2023-02-04T07:48:47;19.25;;;11.57;;
76344;SDS011;65160;50.504;3.666;2023-02-04T07:51:12;20.23;;;12.95;;
76344;SDS011;65160;50.504;3.666;2023-02-04T07:53:38;21.08;;;11.90;;
76344;SDS011;65160;50.504;3.666;2023-02-04T07:56:03;23.98;;;13.98;;
76344;SDS011;65160;50.504;3.666;2023-02-04T07:58:29;21.33;;;13.00;;
76344;SDS011;65160;50.504;3.666;2023-02-04T08:00:54;22.73;;;13.35;;
76344;SDS011;65160;50.504;3.666;2023-02-04T08:03:20;20.15;;;13.55;;
76344;SDS011;65160;50.504;3.666;2023-02-04T08:05:45;21.63;;;13.45;;
76344;SDS011;65160;50.504;3.666;2023-02-04T08:08:11;19.80;;;12.40;;
76344;SDS011;65160;50.504;3.666;2023-02-04T08:10:36;23.35;;;13.27;;
76344;SDS011;65160;50.504;3.666;2023-02-04T08:13:02;23.63;;;12.80;;
76344;SDS011;65160;50.504;3.666;2023-02-04T08:15:27;29.00;;;17.38;;
76344;SDS011;65160;50.504;3.666;2023-02-04T08:17:53;28.60;;;16.77;;
76344;SDS011;65160;50.504;3.666;2023-02-04T08:20:18;29.55;;;17.42;;
76344;SDS011;65160;50.504;3.666;2023-02-04T08:22:44;25.55;;;16.20;;
76344;SDS011;65160;50.504;3.666;2023-02-04T08:25:10;37.65;;;19.45;;
76344;SDS011;65160;50.504;3.666;2023-02-04T08:27:36;29.95;;;16.73;;
76344;SDS011;65160;50.504;3.666;2023-02-04T08:30:02;36.92;;;17.48;;
76344;SDS011;65160;50.504;3.666;2023-02-04T08:32:28;26.33;;;15.55;;
76344;SDS011;65160;50.504;3.666;2023-02-04T08:34:55;26.58;;;14.63;;
76344;SDS011;65160;50.504;3.666;2023-02-04T08:37:21;25.40;;;15.57;;
76344;SDS011;65160;50.504;3.666;2023-02-04T08:39:47;23.52;;;14.57;;
76344;SDS011;65160;50.504;3.666;2023-02-04T08:42:13;23.73;;;14.60;;
76344;SDS011;65160;50.504;3.666;2023-02-04T08:44:39;29.80;;;14.90;;
76344;SDS011;65160;50.504;3.666;2023-02-04T08:47:05;23.25;;;14.43;;
76344;SDS011;65160;50.504;3.666;2023-02-04T08:49:31;22.02;;;13.38;;
76344;SDS011;65160;50.504;3.666;2023-02-04T08:51:56;27.50;;;14.15;;
76344;SDS011;65160;50.504;3.666;2023-02-04T08:54:22;20.83;;;13.18;;
76344;SDS011;65160;50.504;3.666;2023-02-04T08:56:47;21.27;;;12.43;;
76344;SDS011;65160;50.504;3.666;2023-02-04T08:59:13;22.65;;;12.70;;
76344;SDS011;65160;50.504;3.666;2023-02-04T09:01:38;20.88;;;12.10;;
76344;SDS011;65160;50.504;3.666;2023-02-04T09:04:04;23.27;;;13.15;;
76344;SDS011;65160;50.504;3.666;2023-02-04T09:06:29;21.65;;;11.77;;
76344;SDS011;65160;50.504;3.666;2023-02-04T09:08:55;21.83;;;12.38;;
76344;SDS011;65160;50.504;3.666;2023-02-04T09:11:20;18.40;;;11.65;;
76344;SDS011;65160;50.504;3.666;2023-02-04T09:13:46;17.98;;;10.10;;
76344;SDS011;65160;50.504;3.666;2023-02-04T09:16:11;20.75;;;10.65;;
76344;SDS011;65160;50.504;3.666;2023-02-04T09:18:37;19.77;;;10.73;;
76344;SDS011;65160;50.504;3.666;2023-02-04T09:21:02;20.58;;;10.50;;
76344;SDS011;65160;50.504;3.666;2023-02-04T09:23:28;21.25;;;10.45;;
76344;SDS011;65160;50.504;3.666;2023-02-04T09:25:54;18.00;;;11.15;;
76344;SDS011;65160;50.504;3.666;2023-02-04T09:28:19;15.50;;;9.20;;
76344;SDS011;65160;50.504;3.666;2023-02-04T09:30:45;20.23;;;9.77;;
76344;SDS011;65160;50.504;3.666;2023-02-04T09:33:12;23.98;;;10.32;;
76344;SDS011;65160;50.504;3.666;2023-02-04T09:35:40;15.85;;;9.32;;
76344;SDS011;65160;50.504;3.666;2023-02-04T09:38:05;19.77;;;10.13;;
76344;SDS011;65160;50.504;3.666;2023-02-04T09:40:35;20.20;;;9.45;;
76344;SDS011;65160;50.504;3.666;2023-02-04T09:43:05;22.10;;;10.77;;
76344;SDS011;65160;50.504;3.666;2023-02-04T09:45:32;16.35;;;10.13;;
76344;SDS011;65160;50.504;3.666;2023-02-04T09:48:00;19.75;;;10.05;;
76344;SDS011;65160;50.504;3.666;2023-02-04T09:50:28;17.23;;;9.65;;
76344;SDS011;65160;50.504;3.666;2023-02-04T09:52:56;20.58;;;9.93;;
76344;SDS011;65160;50.504;3.666;2023-02-04T09:55:28;19.67;;;10.57;;
76344;SDS011;65160;50.504;3.666;2023-02-04T09:57:56;17.83;;;9.85;;
76344;SDS011;65160;50.504;3.666;2023-02-04T10:00:25;14.48;;;8.82;;
76344;SDS011;65160;50.504;3.666;2023-02-04T10:02:54;17.10;;;9.15;;
76344;SDS011;65160;50.504;3.666;2023-02-04T10:07:54;17.77;;;9.00;;
76344;SDS011;65160;50.504;3.666;2023-02-04T10:10:21;17.20;;;11.32;;
76344;SDS011;65160;50.504;3.666;2023-02-04T10:12:50;16.58;;;9.02;;
76344;SDS011;65160;50.504;3.666;2023-02-04T10:15:22;21.02;;;13.93;;
76344;SDS011;65160;50.504;3.666;2023-02-04T10:18:10;29.33;;;15.93;;
76344;SDS011;65160;50.504;3.666;2023-02-04T10:20:33;24.13;;;12.35;;
76344;SDS011;65160;50.504;3.666;2023-02-04T10:22:59;20.40;;;14.02;;
76344;SDS011;65160;50.504;3.666;2023-02-04T10:25:24;21.27;;;12.32;;
76344;SDS011;65160;50.504;3.666;2023-02-04T10:30:18;20.65;;;11.75;;
76344;SDS011;65160;50.504;3.666;2023-02-04T10:32:45;19.55;;;11.23;;
76344;SDS011;65160;50.504;3.666;2023-02-04T10:35:13;19.30;;;9.95;;
76344;SDS011;65160;50.504;3.666;2023-02-04T10:37:40;16.77;;;9.63;;
76344;SDS011;65160;50.504;3.666;2023-02-04T10:40:21;14.50;;;9.82;;
76344;SDS011;65160;50.504;3.666;2023-02-04T10:42:51;17.52;;;11.10;;
76344;SDS011;65160;50.504;3.666;2023-02-04T10:45:20;17.30;;;11.90;;
76344;SDS011;65160;50.504;3.666;2023-02-04T10:47:54;17.30;;;12.25;;
76344;SDS011;65160;50.504;3.666;2023-02-04T10:50:22;13.40;;;9.38;;
76344;SDS011;65160;50.504;3.666;2023-02-04T10:52:53;23.92;;;16.92;;
76344;SDS011;65160;50.504;3.666;2023-02-04T10:55:40;14.98;;;9.98;;
76344;SDS011;65160;50.504;3.666;2023-02-04T10:58:07;15.18;;;11.63;;
76344;SDS011;65160;50.504;3.666;2023-02-04T11:00:35;15.15;;;9.48;;
76344;SDS011;65160;50.504;3.666;2023-02-04T11:03:06;17.08;;;12.15;;
76344;SDS011;65160;50.504;3.666;2023-02-04T11:05:36;15.05;;;8.35;;
76344;SDS011;65160;50.504;3.666;2023-02-04T11:08:02;14.70;;;8.55;;
76344;SDS011;65160;50.504;3.666;2023-02-04T11:10:40;14.75;;;9.05;;
76344;SDS011;65160;50.504;3.666;2023-02-04T11:13:06;13.35;;;8.05;;
76344;SDS011;65160;50.504;3.666;2023-02-04T11:15:47;16.75;;;6.88;;
76344;SDS011;65160;50.504;3.666;2023-02-04T11:20:49;13.90;;;7.57;;
76344;SDS011;65160;50.504;3.666;2023-02-04T11:23:27;12.15;;;7.20;;
76344;SDS011;65160;50.504;3.666;2023-02-04T11:26:03;12.82;;;6.80;;
76344;SDS011;65160;50.504;3.666;2023-02-04T11:33:49;11.35;;;6.55;;
76344;SDS011;65160;50.504;3.666;2023-02-04T11:36:26;28.27;;;17.02;;
76344;SDS011;65160;50.504;3.666;2023-02-04T11:38:51;11.25;;;6.78;;
76344;SDS011;65160;50.504;3.666;2023-02-04T11:41:26;12.18;;;6.60;;
76344;SDS011;65160;50.504;3.666;2023-02-04T11:43:55;12.20;;;6.60;;
76344;SDS011;65160;50.504;3.666;2023-02-04T11:46:22;11.57;;;6.75;;
76344;SDS011;65160;50.504;3.666;2023-02-04T11:48:53;14.02;;;7.97;;
76344;SDS011;65160;50.504;3.666;2023-02-04T11:51:24;13.60;;;8.25;;
76344;SDS011;65160;50.504;3.666;2023-02-04T11:53:56;12.27;;;6.53;;
76344;SDS011;65160;50.504;3.666;2023-02-04T11:56:22;11.63;;;7.20;;
76344;SDS011;65160;50.504;3.666;2023-02-04T11:58:48;11.68;;;6.03;;
76344;SDS011;65160;50.504;3.666;2023-02-04T12:01:18;9.43;;;6.07;;
76344;SDS011;65160;50.504;3.666;2023-02-04T12:03:46;11.15;;;6.13;;
76344;SDS011;65160;50.504;3.666;2023-02-04T12:06:20;12.88;;;8.02;;
76344;SDS011;65160;50.504;3.666;2023-02-04T12:08:47;13.10;;;8.13;;
76344;SDS011;65160;50.504;3.666;2023-02-04T12:11:28;12.25;;;7.88;;
76344;SDS011;65160;50.504;3.666;2023-02-04T12:13:55;10.70;;;6.50;;
76344;SDS011;65160;50.504;3.666;2023-02-04T12:16:22;9.18;;;5.88;;
76344;SDS011;65160;50.504;3.666;2023-02-04T12:18:48;12.63;;;6.85;;
76344;SDS011;65160;50.504;3.666;2023-02-04T12:21:14;13.18;;;7.07;;
76344;SDS011;65160;50.504;3.666;2023-02-04T12:23:40;12.55;;;7.20;;
76344;SDS011;65160;50.504;3.666;2023-02-04T12:26:06;13.45;;;7.65;;
76344;SDS011;65160;50.504;3.666;2023-02-04T12:28:32;13.30;;;7.68;;
76344;SDS011;65160;50.504;3.666;2023-02-04T12:30:58;13.43;;;8.73;;
76344;SDS011;65160;50.504;3.666;2023-02-04T12:33:24;14.18;;;8.60;;
76344;SDS011;65160;50.504;3.666;2023-02-04T12:35:49;14.27;;;8.25;;
76344;SDS011;65160;50.504;3.666;2023-02-04T12:38:15;11.88;;;7.35;;
76344;SDS011;65160;50.504;3.666;2023-02-04T12:40:41;11.43;;;6.75;;
76344;SDS011;65160;50.504;3.666;2023-02-04T12:43:07;10.43;;;6.47;;
76344;SDS011;65160;50.504;3.666;2023-02-04T12:45:32;10.38;;;6.53;;
76344;SDS011;65160;50.504;3.666;2023-02-04T12:47:58;22.20;;;15.75;;
76344;SDS011;65160;50.504;3.666;2023-02-04T12:50:24;15.02;;;9.05;;
76344;SDS011;65160;50.504;3.666;2023-02-04T12:52:54;40.28;;;26.05;;
76344;SDS011;65160;50.504;3.666;2023-02-04T12:55:22;13.40;;;8.93;;
76344;SDS011;65160;50.504;3.666;2023-02-04T12:57:49;51.97;;;13.05;;
76344;SDS011;65160;50.504;3.666;2023-02-04T13:00:16;17.70;;;8.60;;
76344;SDS011;65160;50.504;3.666;2023-02-04T13:02:43;17.98;;;12.50;;
76344;SDS011;65160;50.504;3.666;2023-02-04T13:05:09;17.00;;;8.38;;
76344;SDS011;65160;50.504;3.666;2023-02-04T13:07:35;17.05;;;10.50;;
76344;SDS011;65160;50.504;3.666;2023-02-04T13:10:00;14.75;;;8.68;;
76344;SDS011;65160;50.504;3.666;2023-02-04T13:12:26;12.27;;;7.68;;
76344;SDS011;65160;50.504;3.666;2023-02-04T13:14:52;13.18;;;7.63;;
76344;SDS011;65160;50.504;3.666;2023-02-04T13:17:17;21.48;;;14.65;;
76344;SDS011;65160;50.504;3.666;2023-02-04T13:19:43;14.75;;;9.48;;
76344;SDS011;65160;50.504;3.666;2023-02-04T13:22:08;14.52;;;8.57;;
76344;SDS011;65160;50.504;3.666;2023-02-04T13:24:34;13.98;;;10.23;;
76344;SDS011;65160;50.504;3.666;2023-02-04T13:26:59;13.50;;;9.02;;
76344;SDS011;65160;50.504;3.666;2023-02-04T13:29:25;18.80;;;9.25;;
76344;SDS011;65160;50.504;3.666;2023-02-04T13:31:50;14.48;;;9.23;;
76344;SDS011;65160;50.504;3.666;2023-02-04T13:34:16;17.73;;;9.57;;
76344;SDS011;65160;50.504;3.666;2023-02-04T13:36:42;15.90;;;9.45;;
76344;SDS011;65160;50.504;3.666;2023-02-04T13:39:08;14.77;;;9.73;;
76344;SDS011;65160;50.504;3.666;2023-02-04T13:41:34;14.30;;;7.80;;
76344;SDS011;65160;50.504;3.666;2023-02-04T13:44:00;14.23;;;9.15;;
76344;SDS011;65160;50.504;3.666;2023-02-04T13:46:26;28.33;;;18.67;;
76344;SDS011;65160;50.504;3.666;2023-02-04T13:48:52;14.77;;;10.73;;
76344;SDS011;65160;50.504;3.666;2023-02-04T13:51:17;28.48;;;17.75;;
76344;SDS011;65160;50.504;3.666;2023-02-04T13:53:43;18.65;;;11.40;;
76344;SDS011;65160;50.504;3.666;2023-02-04T13:56:08;23.92;;;15.02;;
76344;SDS011;65160;50.504;3.666;2023-02-04T13:58:34;22.45;;;15.68;;
76344;SDS011;65160;50.504;3.666;2023-02-04T14:00:59;23.17;;;11.85;;
76344;SDS011;65160;50.504;3.666;2023-02-04T14:03:25;22.92;;;15.48;;
76344;SDS011;65160;50.504;3.666;2023-02-04T14:05:52;17.80;;;11.48;;
76344;SDS011;65160;50.504;3.666;2023-02-04T14:08:19;16.08;;;10.32;;
76344;SDS011;65160;50.504;3.666;2023-02-04T14:10:45;18.42;;;10.70;;
76344;SDS011;65160;50.504;3.666;2023-02-04T14:13:11;17.30;;;10.57;;
76344;SDS011;65160;50.504;3.666;2023-02-04T14:15:37;17.52;;;9.73;;
76344;SDS011;65160;50.504;3.666;2023-02-04T14:18:04;20.00;;;12.68;;
76344;SDS011;65160;50.504;3.666;2023-02-04T14:20:30;36.15;;;26.33;;
76344;SDS011;65160;50.504;3.666;2023-02-04T14:22:56;22.30;;;12.82;;
76344;SDS011;65160;50.504;3.666;2023-02-04T14:25:21;19.08;;;10.88;;
76344;SDS011;65160;50.504;3.666;2023-02-04T14:27:47;15.52;;;9.52;;
76344;SDS011;65160;50.504;3.666;2023-02-04T14:32:42;20.98;;;10.52;;
76344;SDS011;65160;50.504;3.666;2023-02-04T14:35:08;19.05;;;9.55;;
76344;SDS011;65160;50.504;3.666;2023-02-04T14:37:33;19.98;;;12.48;;
76344;SDS011;65160;50.504;3.666;2023-02-04T14:39:59;16.25;;;9.57;;
76344;SDS011;65160;50.504;3.666;2023-02-04T14:42:24;20.95;;;9.95;;
76344;SDS011;65160;50.504;3.666;2023-02-04T14:44:50;14.80;;;7.53;;